Cape Bata — V7EF2 — position and weather

sailwx.info

Track history (hours):
 
Tides and Currents Weather Stations Pressure Air Temp Water Temp Dewpoint Dewpoint Depression Visibility Wind Speed Wind Dir Waves Ship Positions

Cape Bata

Last reported at 2014-Aug-13 20:33 UTC. Time now 2014-Aug-31 06:39 UTC.
Position N 01°09' E 103°45'.
Warning: this ship's position is 17 days out of date.

Length 274 m; draft 9.2 m.

Type: Tanker. MMSI: 538090162.

Date/timePositionNaut miles runAvg speedWind from/ knotsBaromVisibWave heightAir tempDewpointWater temp
2014-Aug-13 20:33N 01°09' E 103°45'6 5.6
2014-Aug-13 19:33N 01°11' E 103°50'7 6.7
2014-Aug-13 18:33N 01°14' E 103°56'8 7.8
2014-Aug-13 17:33N 01°17' E 104°03'1 0.5
2014-Aug-13 16:30N 01°18' E 104°04'0 0.0
2014-Aug-13 13:21N 01°18' E 104°04'0 0.1
2014-Aug-13 12:18N 01°18' E 104°04'0 0.0
2014-Aug-12 22:31N 01°18' E 104°04'4 4.3
2014-Aug-12 21:33N 01°17' E 104°08'  
2014-Aug-04 22:16N 01°15' E 104°06'1115.1
2014-Aug-04 21:33N 01°13' E 103°55'  
Track history (hours):
 
Tides and Currents Weather Stations Pressure Air Temp Water Temp Dewpoint Dewpoint Depression Visibility Wind Speed Wind Dir Waves Ship Positions

Cape Bata

Last reported at 2014-Aug-13 20:33 UTC. Time now 2014-Aug-31 06:39 UTC.
Position N 01°09' E 103°45'.
Warning: this ship's position is 17 days out of date.

Length 274 m; draft 9.2 m.

Type: Tanker. MMSI: 538090162.

Date/timePositionNaut miles runAvg speedWind from/ knotsBaromVisibWave heightAir tempDewpointWater temp
2014-Aug-13 20:33N 01°09' E 103°45'6 5.6
2014-Aug-13 19:33N 01°11' E 103°50'7 6.7
2014-Aug-13 18:33N 01°14' E 103°56'8 7.8
2014-Aug-13 17:33N 01°17' E 104°03'1 0.5
2014-Aug-13 16:30N 01°18' E 104°04'0 0.0
2014-Aug-13 13:21N 01°18' E 104°04'0 0.1
2014-Aug-13 12:18N 01°18' E 104°04'0 0.0
2014-Aug-12 22:31N 01°18' E 104°04'4 4.3
2014-Aug-12 21:33N 01°17' E 104°08'  
2014-Aug-04 22:16N 01°15' E 104°06'1115.1
2014-Aug-04 21:33N 01°13' E 103°55'  

Dump ship's entire track history